sensor_id;sensor_type;location;lat;lon;timestamp;P1;durP1;ratioP1;P2;durP2;ratioP2
6203;SDS011;3135;42.602;23.468;2023-02-08T00:00:47;18.60;;;7.15;;
6203;SDS011;3135;42.602;23.468;2023-02-08T00:03:13;20.38;;;7.20;;
6203;SDS011;3135;42.602;23.468;2023-02-08T00:05:38;17.93;;;7.50;;
6203;SDS011;3135;42.602;23.468;2023-02-08T00:08:04;18.00;;;7.43;;
6203;SDS011;3135;42.602;23.468;2023-02-08T00:10:29;20.98;;;8.30;;
6203;SDS011;3135;42.602;23.468;2023-02-08T00:12:55;19.80;;;7.93;;
6203;SDS011;3135;42.602;23.468;2023-02-08T00:15:20;20.10;;;7.43;;
6203;SDS011;3135;42.602;23.468;2023-02-08T00:17:46;19.33;;;7.57;;
6203;SDS011;3135;42.602;23.468;2023-02-08T00:20:12;20.58;;;7.85;;
6203;SDS011;3135;42.602;23.468;2023-02-08T00:22:39;21.90;;;7.47;;
6203;SDS011;3135;42.602;23.468;2023-02-08T00:25:05;17.97;;;7.60;;
6203;SDS011;3135;42.602;23.468;2023-02-08T00:27:31;20.93;;;8.23;;
6203;SDS011;3135;42.602;23.468;2023-02-08T00:29:56;22.20;;;7.28;;
6203;SDS011;3135;42.602;23.468;2023-02-08T00:32:22;20.03;;;7.50;;
6203;SDS011;3135;42.602;23.468;2023-02-08T00:34:47;21.88;;;8.20;;
6203;SDS011;3135;42.602;23.468;2023-02-08T00:37:13;101.93;;;27.37;;
6203;SDS011;3135;42.602;23.468;2023-02-08T00:39:38;20.27;;;7.93;;
6203;SDS011;3135;42.602;23.468;2023-02-08T00:42:04;21.70;;;8.20;;
6203;SDS011;3135;42.602;23.468;2023-02-08T00:44:29;19.40;;;7.67;;
6203;SDS011;3135;42.602;23.468;2023-02-08T00:46:55;18.57;;;8.13;;
6203;SDS011;3135;42.602;23.468;2023-02-08T00:49:20;21.45;;;8.68;;
6203;SDS011;3135;42.602;23.468;2023-02-08T00:51:45;21.60;;;8.00;;
6203;SDS011;3135;42.602;23.468;2023-02-08T00:54:20;21.57;;;8.00;;
6203;SDS011;3135;42.602;23.468;2023-02-08T00:56:45;20.33;;;7.70;;
6203;SDS011;3135;42.602;23.468;2023-02-08T00:59:11;20.83;;;8.02;;
6203;SDS011;3135;42.602;23.468;2023-02-08T01:01:37;21.38;;;7.53;;
6203;SDS011;3135;42.602;23.468;2023-02-08T01:04:04;22.40;;;7.68;;
6203;SDS011;3135;42.602;23.468;2023-02-08T01:06:30;19.80;;;8.18;;
6203;SDS011;3135;42.602;23.468;2023-02-08T01:08:55;16.85;;;7.43;;
6203;SDS011;3135;42.602;23.468;2023-02-08T01:11:21;19.53;;;7.40;;
6203;SDS011;3135;42.602;23.468;2023-02-08T01:13:52;19.55;;;8.13;;
6203;SDS011;3135;42.602;23.468;2023-02-08T01:16:26;22.88;;;7.97;;
6203;SDS011;3135;42.602;23.468;2023-02-08T01:18:55;19.23;;;7.72;;
6203;SDS011;3135;42.602;23.468;2023-02-08T01:21:26;20.33;;;7.80;;
6203;SDS011;3135;42.602;23.468;2023-02-08T01:23:53;19.25;;;8.23;;
6203;SDS011;3135;42.602;23.468;2023-02-08T01:26:19;22.58;;;8.07;;
6203;SDS011;3135;42.602;23.468;2023-02-08T01:28:46;18.92;;;7.35;;
6203;SDS011;3135;42.602;23.468;2023-02-08T01:31:14;20.33;;;7.55;;
6203;SDS011;3135;42.602;23.468;2023-02-08T01:33:44;22.50;;;9.18;;
6203;SDS011;3135;42.602;23.468;2023-02-08T01:36:09;16.80;;;6.85;;
6203;SDS011;3135;42.602;23.468;2023-02-08T01:38:36;18.17;;;7.28;;
6203;SDS011;3135;42.602;23.468;2023-02-08T01:41:02;20.50;;;7.53;;
6203;SDS011;3135;42.602;23.468;2023-02-08T01:43:30;19.58;;;7.60;;
6203;SDS011;3135;42.602;23.468;2023-02-08T01:45:58;19.23;;;7.63;;
6203;SDS011;3135;42.602;23.468;2023-02-08T01:50:56;20.52;;;9.02;;
6203;SDS011;3135;42.602;23.468;2023-02-08T01:53:27;18.92;;;7.63;;
6203;SDS011;3135;42.602;23.468;2023-02-08T01:55:56;26.30;;;9.38;;
6203;SDS011;3135;42.602;23.468;2023-02-08T01:58:25;21.00;;;7.97;;
6203;SDS011;3135;42.602;23.468;2023-02-08T02:00:52;18.17;;;8.02;;
6203;SDS011;3135;42.602;23.468;2023-02-08T02:03:18;20.50;;;8.00;;
6203;SDS011;3135;42.602;23.468;2023-02-08T02:05:51;19.23;;;8.10;;
6203;SDS011;3135;42.602;23.468;2023-02-08T02:08:19;20.50;;;8.05;;
6203;SDS011;3135;42.602;23.468;2023-02-08T02:10:46;19.60;;;7.93;;
6203;SDS011;3135;42.602;23.468;2023-02-08T02:13:17;19.75;;;8.70;;
6203;SDS011;3135;42.602;23.468;2023-02-08T02:15:45;20.00;;;7.97;;
6203;SDS011;3135;42.602;23.468;2023-02-08T02:18:11;19.47;;;7.73;;
6203;SDS011;3135;42.602;23.468;2023-02-08T02:34:44;21.13;;;8.38;;
6203;SDS011;3135;42.602;23.468;2023-02-08T02:51:06;27.42;;;10.95;;
6203;SDS011;3135;42.602;23.468;2023-02-08T02:56:08;35.53;;;12.45;;
6203;SDS011;3135;42.602;23.468;2023-02-08T02:58:38;32.17;;;12.85;;
6203;SDS011;3135;42.602;23.468;2023-02-08T03:01:04;36.28;;;14.05;;
6203;SDS011;3135;42.602;23.468;2023-02-08T03:03:31;34.20;;;13.13;;
6203;SDS011;3135;42.602;23.468;2023-02-08T03:06:05;30.95;;;11.90;;
6203;SDS011;3135;42.602;23.468;2023-02-08T03:11:17;36.22;;;13.88;;
6203;SDS011;3135;42.602;23.468;2023-02-08T03:13:55;149.35;;;44.72;;
6203;SDS011;3135;42.602;23.468;2023-02-08T03:16:30;49.60;;;17.63;;
6203;SDS011;3135;42.602;23.468;2023-02-08T03:19:19;41.05;;;14.93;;
6203;SDS011;3135;42.602;23.468;2023-02-08T03:27:14;44.38;;;14.63;;
6203;SDS011;3135;42.602;23.468;2023-02-08T03:30:02;45.38;;;15.80;;
6203;SDS011;3135;42.602;23.468;2023-02-08T03:33:04;41.22;;;14.57;;
6203;SDS011;3135;42.602;23.468;2023-02-08T03:35:43;47.60;;;15.48;;
6203;SDS011;3135;42.602;23.468;2023-02-08T03:38:26;40.53;;;14.45;;
6203;SDS011;3135;42.602;23.468;2023-02-08T03:40:56;43.83;;;15.27;;
6203;SDS011;3135;42.602;23.468;2023-02-08T03:43:26;46.45;;;15.60;;
6203;SDS011;3135;42.602;23.468;2023-02-08T03:46:05;51.47;;;17.98;;
6203;SDS011;3135;42.602;23.468;2023-02-08T03:48:35;44.92;;;16.05;;
6203;SDS011;3135;42.602;23.468;2023-02-08T03:51:04;43.17;;;15.40;;
6203;SDS011;3135;42.602;23.468;2023-02-08T03:53:32;49.20;;;17.05;;
6203;SDS011;3135;42.602;23.468;2023-02-08T03:56:06;57.20;;;19.37;;
6203;SDS011;3135;42.602;23.468;2023-02-08T03:58:39;48.70;;;17.88;;
6203;SDS011;3135;42.602;23.468;2023-02-08T04:01:22;61.47;;;21.23;;
6203;SDS011;3135;42.602;23.468;2023-02-08T04:03:53;56.95;;;20.20;;
6203;SDS011;3135;42.602;23.468;2023-02-08T04:06:20;57.17;;;18.70;;
6203;SDS011;3135;42.602;23.468;2023-02-08T04:08:46;55.35;;;19.52;;
6203;SDS011;3135;42.602;23.468;2023-02-08T04:11:12;51.15;;;18.00;;
6203;SDS011;3135;42.602;23.468;2023-02-08T04:13:38;55.53;;;18.90;;
6203;SDS011;3135;42.602;23.468;2023-02-08T04:16:03;54.85;;;19.75;;
6203;SDS011;3135;42.602;23.468;2023-02-08T04:18:29;57.20;;;21.80;;
6203;SDS011;3135;42.602;23.468;2023-02-08T04:20:55;50.45;;;19.38;;
6203;SDS011;3135;42.602;23.468;2023-02-08T04:23:20;44.23;;;15.97;;
6203;SDS011;3135;42.602;23.468;2023-02-08T04:25:45;49.00;;;18.37;;
6203;SDS011;3135;42.602;23.468;2023-02-08T04:28:11;45.47;;;17.73;;
6203;SDS011;3135;42.602;23.468;2023-02-08T04:30:36;43.28;;;16.55;;
6203;SDS011;3135;42.602;23.468;2023-02-08T04:33:02;42.63;;;15.43;;
6203;SDS011;3135;42.602;23.468;2023-02-08T04:35:27;32.90;;;12.18;;
6203;SDS011;3135;42.602;23.468;2023-02-08T04:37:53;38.37;;;15.90;;
6203;SDS011;3135;42.602;23.468;2023-02-08T04:40:19;33.50;;;12.93;;
6203;SDS011;3135;42.602;23.468;2023-02-08T04:42:44;30.90;;;11.98;;
6203;SDS011;3135;42.602;23.468;2023-02-08T04:45:10;27.60;;;11.37;;
6203;SDS011;3135;42.602;23.468;2023-02-08T04:47:35;30.33;;;11.43;;
6203;SDS011;3135;42.602;23.468;2023-02-08T04:50:00;35.83;;;13.18;;
6203;SDS011;3135;42.602;23.468;2023-02-08T04:52:26;36.47;;;12.80;;
6203;SDS011;3135;42.602;23.468;2023-02-08T04:54:51;27.77;;;10.83;;
6203;SDS011;3135;42.602;23.468;2023-02-08T04:57:17;30.30;;;11.57;;
6203;SDS011;3135;42.602;23.468;2023-02-08T04:59:42;32.77;;;12.00;;
6203;SDS011;3135;42.602;23.468;2023-02-08T05:02:08;30.60;;;11.70;;
6203;SDS011;3135;42.602;23.468;2023-02-08T05:04:33;29.17;;;10.52;;
6203;SDS011;3135;42.602;23.468;2023-02-08T05:06:59;39.17;;;13.52;;
6203;SDS011;3135;42.602;23.468;2023-02-08T05:09:25;46.20;;;15.87;;
6203;SDS011;3135;42.602;23.468;2023-02-08T05:11:50;51.83;;;16.43;;
6203;SDS011;3135;42.602;23.468;2023-02-08T05:14:16;39.63;;;14.38;;
6203;SDS011;3135;42.602;23.468;2023-02-08T05:16:41;37.60;;;13.30;;
6203;SDS011;3135;42.602;23.468;2023-02-08T05:19:07;38.83;;;13.77;;
6203;SDS011;3135;42.602;23.468;2023-02-08T05:21:34;34.60;;;13.05;;
6203;SDS011;3135;42.602;23.468;2023-02-08T05:24:00;28.13;;;11.27;;
6203;SDS011;3135;42.602;23.468;2023-02-08T05:26:25;34.00;;;12.23;;
6203;SDS011;3135;42.602;23.468;2023-02-08T05:28:51;34.07;;;12.67;;
6203;SDS011;3135;42.602;23.468;2023-02-08T05:31:17;32.90;;;12.37;;
6203;SDS011;3135;42.602;23.468;2023-02-08T05:33:45;33.65;;;12.43;;
6203;SDS011;3135;42.602;23.468;2023-02-08T05:36:13;34.42;;;13.13;;
6203;SDS011;3135;42.602;23.468;2023-02-08T05:38:38;34.17;;;12.20;;
6203;SDS011;3135;42.602;23.468;2023-02-08T05:41:04;28.67;;;11.50;;
6203;SDS011;3135;42.602;23.468;2023-02-08T05:43:29;34.08;;;11.95;;
6203;SDS011;3135;42.602;23.468;2023-02-08T05:45:55;38.03;;;13.20;;
6203;SDS011;3135;42.602;23.468;2023-02-08T05:48:20;31.42;;;11.93;;
6203;SDS011;3135;42.602;23.468;2023-02-08T05:50:46;32.03;;;11.40;;
6203;SDS011;3135;42.602;23.468;2023-02-08T05:53:11;31.33;;;11.27;;
6203;SDS011;3135;42.602;23.468;2023-02-08T05:55:37;33.40;;;11.77;;
6203;SDS011;3135;42.602;23.468;2023-02-08T05:58:02;31.90;;;11.43;;
6203;SDS011;3135;42.602;23.468;2023-02-08T06:00:28;29.63;;;10.73;;
6203;SDS011;3135;42.602;23.468;2023-02-08T06:02:53;31.60;;;12.55;;
6203;SDS011;3135;42.602;23.468;2023-02-08T06:05:19;29.50;;;10.63;;
6203;SDS011;3135;42.602;23.468;2023-02-08T06:07:44;25.83;;;10.05;;
6203;SDS011;3135;42.602;23.468;2023-02-08T06:10:10;24.37;;;10.23;;
6203;SDS011;3135;42.602;23.468;2023-02-08T06:12:35;27.97;;;11.13;;
6203;SDS011;3135;42.602;23.468;2023-02-08T06:15:01;32.55;;;12.93;;
6203;SDS011;3135;42.602;23.468;2023-02-08T06:17:26;27.07;;;10.67;;
6203;SDS011;3135;42.602;23.468;2023-02-08T06:19:52;26.77;;;9.38;;
6203;SDS011;3135;42.602;23.468;2023-02-08T06:22:17;26.10;;;9.80;;
6203;SDS011;3135;42.602;23.468;2023-02-08T06:24:45;24.10;;;9.07;;
6203;SDS011;3135;42.602;23.468;2023-02-08T06:27:12;24.13;;;9.50;;
6203;SDS011;3135;42.602;23.468;2023-02-08T06:29:38;20.80;;;8.50;;
6203;SDS011;3135;42.602;23.468;2023-02-08T06:32:03;23.90;;;9.77;;
6203;SDS011;3135;42.602;23.468;2023-02-08T06:34:29;48.77;;;18.63;;
6203;SDS011;3135;42.602;23.468;2023-02-08T06:36:54;51.03;;;17.55;;
6203;SDS011;3135;42.602;23.468;2023-02-08T06:39:21;36.40;;;11.60;;
6203;SDS011;3135;42.602;23.468;2023-02-08T06:41:46;28.48;;;11.27;;
6203;SDS011;3135;42.602;23.468;2023-02-08T06:44:12;30.77;;;11.80;;
6203;SDS011;3135;42.602;23.468;2023-02-08T06:46:37;34.23;;;13.93;;
6203;SDS011;3135;42.602;23.468;2023-02-08T06:49:02;36.10;;;15.65;;
6203;SDS011;3135;42.602;23.468;2023-02-08T06:51:28;30.67;;;12.80;;
6203;SDS011;3135;42.602;23.468;2023-02-08T06:53:53;31.17;;;11.47;;
6203;SDS011;3135;42.602;23.468;2023-02-08T06:56:19;22.57;;;8.60;;
6203;SDS011;3135;42.602;23.468;2023-02-08T06:58:44;24.23;;;9.00;;
6203;SDS011;3135;42.602;23.468;2023-02-08T07:01:10;42.97;;;21.23;;
6203;SDS011;3135;42.602;23.468;2023-02-08T07:03:39;23.05;;;9.45;;
6203;SDS011;3135;42.602;23.468;2023-02-08T07:06:04;31.50;;;11.00;;
6203;SDS011;3135;42.602;23.468;2023-02-08T07:08:31;23.93;;;9.43;;
6203;SDS011;3135;42.602;23.468;2023-02-08T07:10:57;21.70;;;8.52;;
6203;SDS011;3135;42.602;23.468;2023-02-08T07:13:23;14.38;;;6.20;;
6203;SDS011;3135;42.602;23.468;2023-02-08T07:15:48;15.23;;;6.70;;
6203;SDS011;3135;42.602;23.468;2023-02-08T07:18:14;23.83;;;7.73;;
6203;SDS011;3135;42.602;23.468;2023-02-08T07:20:39;20.87;;;8.60;;
6203;SDS011;3135;42.602;23.468;2023-02-08T07:23:04;32.10;;;13.30;;
6203;SDS011;3135;42.602;23.468;2023-02-08T07:25:30;68.03;;;23.50;;
6203;SDS011;3135;42.602;23.468;2023-02-08T07:27:55;60.27;;;20.67;;
6203;SDS011;3135;42.602;23.468;2023-02-08T07:30:21;68.60;;;24.23;;
6203;SDS011;3135;42.602;23.468;2023-02-08T07:32:46;125.32;;;41.33;;
6203;SDS011;3135;42.602;23.468;2023-02-08T07:35:11;106.80;;;34.80;;
6203;SDS011;3135;42.602;23.468;2023-02-08T07:37:37;108.80;;;31.27;;
6203;SDS011;3135;42.602;23.468;2023-02-08T07:40:02;76.57;;;26.15;;
6203;SDS011;3135;42.602;23.468;2023-02-08T07:42:28;87.93;;;28.17;;
6203;SDS011;3135;42.602;23.468;2023-02-08T07:44:53;68.27;;;24.73;;
6203;SDS011;3135;42.602;23.468;2023-02-08T07:47:19;77.35;;;27.77;;
6203;SDS011;3135;42.602;23.468;2023-02-08T07:49:44;104.93;;;32.77;;
6203;SDS011;3135;42.602;23.468;2023-02-08T07:52:09;74.17;;;25.33;;
6203;SDS011;3135;42.602;23.468;2023-02-08T07:54:35;66.33;;;23.97;;
6203;SDS011;3135;42.602;23.468;2023-02-08T07:57:00;69.25;;;22.55;;
6203;SDS011;3135;42.602;23.468;2023-02-08T07:59:26;51.10;;;19.13;;
6203;SDS011;3135;42.602;23.468;2023-02-08T08:01:51;58.23;;;20.13;;
6203;SDS011;3135;42.602;23.468;2023-02-08T08:04:17;49.67;;;18.48;;
6203;SDS011;3135;42.602;23.468;2023-02-08T08:06:43;46.38;;;17.10;;
6203;SDS011;3135;42.602;23.468;2023-02-08T08:09:10;46.22;;;16.73;;
6203;SDS011;3135;42.602;23.468;2023-02-08T08:11:36;43.33;;;16.03;;
6203;SDS011;3135;42.602;23.468;2023-02-08T08:14:01;43.10;;;16.25;;
6203;SDS011;3135;42.602;23.468;2023-02-08T08:16:27;54.00;;;19.53;;
6203;SDS011;3135;42.602;23.468;2023-02-08T08:18:52;49.27;;;17.57;;
6203;SDS011;3135;42.602;23.468;2023-02-08T08:21:17;50.07;;;18.50;;
6203;SDS011;3135;42.602;23.468;2023-02-08T08:23:43;51.13;;;18.33;;
6203;SDS011;3135;42.602;23.468;2023-02-08T08:26:09;53.77;;;18.57;;
6203;SDS011;3135;42.602;23.468;2023-02-08T08:28:42;44.30;;;17.02;;
6203;SDS011;3135;42.602;23.468;2023-02-08T08:31:18;47.03;;;16.77;;
6203;SDS011;3135;42.602;23.468;2023-02-08T08:33:45;62.88;;;20.83;;
6203;SDS011;3135;42.602;23.468;2023-02-08T08:36:11;47.97;;;17.33;;
6203;SDS011;3135;42.602;23.468;2023-02-08T08:38:36;176.80;;;36.33;;
6203;SDS011;3135;42.602;23.468;2023-02-08T08:41:06;40.63;;;15.30;;
6203;SDS011;3135;42.602;23.468;2023-02-08T08:43:38;45.88;;;17.05;;
6203;SDS011;3135;42.602;23.468;2023-02-08T08:46:05;55.65;;;19.50;;
6203;SDS011;3135;42.602;23.468;2023-02-08T08:48:31;41.13;;;15.48;;
6203;SDS011;3135;42.602;23.468;2023-02-08T08:50:57;28.95;;;11.13;;
6203;SDS011;3135;42.602;23.468;2023-02-08T08:53:23;29.97;;;11.30;;
6203;SDS011;3135;42.602;23.468;2023-02-08T08:55:49;56.13;;;19.83;;
6203;SDS011;3135;42.602;23.468;2023-02-08T08:58:15;46.60;;;18.17;;
6203;SDS011;3135;42.602;23.468;2023-02-08T09:00:40;47.88;;;18.35;;
6203;SDS011;3135;42.602;23.468;2023-02-08T09:03:05;46.87;;;17.33;;
6203;SDS011;3135;42.602;23.468;2023-02-08T09:05:31;51.90;;;18.57;;
6203;SDS011;3135;42.602;23.468;2023-02-08T09:07:56;51.97;;;18.77;;
6203;SDS011;3135;42.602;23.468;2023-02-08T09:10:22;57.47;;;20.67;;
6203;SDS011;3135;42.602;23.468;2023-02-08T09:12:47;53.53;;;19.83;;
6203;SDS011;3135;42.602;23.468;2023-02-08T09:15:13;50.70;;;19.50;;
6203;SDS011;3135;42.602;23.468;2023-02-08T09:17:38;42.08;;;14.93;;
6203;SDS011;3135;42.602;23.468;2023-02-08T09:20:04;49.43;;;17.93;;
6203;SDS011;3135;42.602;23.468;2023-02-08T09:22:29;39.67;;;14.45;;
6203;SDS011;3135;42.602;23.468;2023-02-08T09:24:55;40.27;;;14.90;;
6203;SDS011;3135;42.602;23.468;2023-02-08T09:27:20;44.40;;;15.43;;
6203;SDS011;3135;42.602;23.468;2023-02-08T09:29:45;43.80;;;15.50;;
6203;SDS011;3135;42.602;23.468;2023-02-08T09:32:11;40.22;;;15.40;;
6203;SDS011;3135;42.602;23.468;2023-02-08T09:34:36;49.77;;;16.40;;
6203;SDS011;3135;42.602;23.468;2023-02-08T09:37:02;22.23;;;9.60;;
6203;SDS011;3135;42.602;23.468;2023-02-08T09:39:27;31.57;;;11.77;;
6203;SDS011;3135;42.602;23.468;2023-02-08T09:42:56;25.80;;;9.20;;
6203;SDS011;3135;42.602;23.468;2023-02-08T09:44:54;26.38;;;10.18;;
6203;SDS011;3135;42.602;23.468;2023-02-08T09:47:35;29.50;;;10.50;;
6203;SDS011;3135;42.602;23.468;2023-02-08T09:50:09;28.25;;;10.80;;
6203;SDS011;3135;42.602;23.468;2023-02-08T09:52:40;24.00;;;10.00;;
6203;SDS011;3135;42.602;23.468;2023-02-08T09:55:18;28.33;;;10.55;;
6203;SDS011;3135;42.602;23.468;2023-02-08T09:57:50;27.02;;;10.65;;
6203;SDS011;3135;42.602;23.468;2023-02-08T10:00:20;25.92;;;11.55;;
6203;SDS011;3135;42.602;23.468;2023-02-08T10:02:51;27.58;;;10.90;;
6203;SDS011;3135;42.602;23.468;2023-02-08T10:05:21;27.53;;;10.80;;
6203;SDS011;3135;42.602;23.468;2023-02-08T10:07:49;27.55;;;10.40;;
6203;SDS011;3135;42.602;23.468;2023-02-08T10:10:15;26.97;;;9.83;;
6203;SDS011;3135;42.602;23.468;2023-02-08T10:13:04;25.95;;;10.05;;
6203;SDS011;3135;42.602;23.468;2023-02-08T10:15:46;24.25;;;10.40;;
6203;SDS011;3135;42.602;23.468;2023-02-08T10:26:48;27.63;;;10.88;;
6203;SDS011;3135;42.602;23.468;2023-02-08T10:34:54;23.08;;;8.75;;
6203;SDS011;3135;42.602;23.468;2023-02-08T10:37:34;20.70;;;8.80;;
6203;SDS011;3135;42.602;23.468;2023-02-08T10:40:23;27.13;;;9.80;;
6203;SDS011;3135;42.602;23.468;2023-02-08T10:43:02;22.67;;;9.43;;
6203;SDS011;3135;42.602;23.468;2023-02-08T10:45:31;30.50;;;11.90;;
6203;SDS011;3135;42.602;23.468;2023-02-08T10:48:08;23.23;;;9.65;;
6203;SDS011;3135;42.602;23.468;2023-02-08T10:50:40;25.23;;;10.00;;
6203;SDS011;3135;42.602;23.468;2023-02-08T10:53:12;27.23;;;11.10;;
6203;SDS011;3135;42.602;23.468;2023-02-08T10:55:41;26.73;;;9.25;;
6203;SDS011;3135;42.602;23.468;2023-02-08T10:58:12;42.97;;;16.10;;
6203;SDS011;3135;42.602;23.468;2023-02-08T11:00:44;32.15;;;13.40;;
6203;SDS011;3135;42.602;23.468;2023-02-08T11:03:22;25.52;;;9.68;;
6203;SDS011;3135;42.602;23.468;2023-02-08T11:05:49;21.80;;;8.68;;
6203;SDS011;3135;42.602;23.468;2023-02-08T11:08:16;24.88;;;9.48;;
6203;SDS011;3135;42.602;23.468;2023-02-08T11:11:03;37.85;;;13.40;;
6203;SDS011;3135;42.602;23.468;2023-02-08T11:13:41;26.37;;;10.70;;
6203;SDS011;3135;42.602;23.468;2023-02-08T11:16:09;28.70;;;10.65;;
6203;SDS011;3135;42.602;23.468;2023-02-08T11:18:40;23.83;;;9.90;;
6203;SDS011;3135;42.602;23.468;2023-02-08T11:21:25;35.63;;;13.02;;
6203;SDS011;3135;42.602;23.468;2023-02-08T11:23:57;25.42;;;9.95;;
6203;SDS011;3135;42.602;23.468;2023-02-08T11:32:03;32.92;;;12.50;;
6203;SDS011;3135;42.602;23.468;2023-02-08T11:34:40;28.67;;;11.10;;
6203;SDS011;3135;42.602;23.468;2023-02-08T11:39:53;22.15;;;9.75;;
6203;SDS011;3135;42.602;23.468;2023-02-08T11:42:36;23.67;;;9.38;;
6203;SDS011;3135;42.602;23.468;2023-02-08T11:45:15;24.85;;;10.38;;
6203;SDS011;3135;42.602;23.468;2023-02-08T11:47:45;26.07;;;10.00;;
6203;SDS011;3135;42.602;23.468;2023-02-08T11:50:20;25.55;;;10.27;;
6203;SDS011;3135;42.602;23.468;2023-02-08T11:52:50;26.13;;;10.23;;
6203;SDS011;3135;42.602;23.468;2023-02-08T11:55:22;26.73;;;9.90;;
6203;SDS011;3135;42.602;23.468;2023-02-08T11:58:01;21.98;;;9.07;;
6203;SDS011;3135;42.602;23.468;2023-02-08T12:00:33;27.13;;;10.20;;
6203;SDS011;3135;42.602;23.468;2023-02-08T12:03:01;24.75;;;10.13;;
6203;SDS011;3135;42.602;23.468;2023-02-08T12:08:34;21.43;;;9.27;;
6203;SDS011;3135;42.602;23.468;2023-02-08T12:13:56;24.45;;;10.38;;
6203;SDS011;3135;42.602;23.468;2023-02-08T12:21:45;18.13;;;8.63;;
6203;SDS011;3135;42.602;23.468;2023-02-08T12:27:06;19.30;;;7.22;;
6203;SDS011;3135;42.602;23.468;2023-02-08T12:29:46;21.45;;;7.20;;
6203;SDS011;3135;42.602;23.468;2023-02-08T12:32:22;11.63;;;5.45;;
6203;SDS011;3135;42.602;23.468;2023-02-08T12:37:46;14.50;;;6.35;;
6203;SDS011;3135;42.602;23.468;2023-02-08T12:54:14;29.60;;;10.30;;
6203;SDS011;3135;42.602;23.468;2023-02-08T12:56:49;16.20;;;6.68;;
6203;SDS011;3135;42.602;23.468;2023-02-08T12:59:18;14.23;;;6.60;;
6203;SDS011;3135;42.602;23.468;2023-02-08T13:01:51;15.13;;;6.57;;
6203;SDS011;3135;42.602;23.468;2023-02-08T13:04:22;14.77;;;6.43;;
6203;SDS011;3135;42.602;23.468;2023-02-08T13:07:07;17.45;;;7.07;;
6203;SDS011;3135;42.602;23.468;2023-02-08T13:09:47;30.25;;;10.32;;
6203;SDS011;3135;42.602;23.468;2023-02-08T13:12:31;12.93;;;5.18;;
6203;SDS011;3135;42.602;23.468;2023-02-08T13:15:03;22.58;;;8.60;;
6203;SDS011;3135;42.602;23.468;2023-02-08T13:22:48;18.50;;;7.47;;
6203;SDS011;3135;42.602;23.468;2023-02-08T13:25:48;18.23;;;7.50;;
6203;SDS011;3135;42.602;23.468;2023-02-08T13:28:07;18.55;;;7.78;;
6203;SDS011;3135;42.602;23.468;2023-02-08T13:30:36;16.17;;;6.50;;
6203;SDS011;3135;42.602;23.468;2023-02-08T13:33:06;16.30;;;6.30;;
6203;SDS011;3135;42.602;23.468;2023-02-08T13:35:40;19.00;;;7.88;;
6203;SDS011;3135;42.602;23.468;2023-02-08T13:38:19;42.40;;;15.15;;
6203;SDS011;3135;42.602;23.468;2023-02-08T13:41:05;31.50;;;10.27;;
6203;SDS011;3135;42.602;23.468;2023-02-08T13:43:42;32.60;;;10.98;;
6203;SDS011;3135;42.602;23.468;2023-02-08T13:46:12;32.30;;;9.73;;
6203;SDS011;3135;42.602;23.468;2023-02-08T13:48:39;12.00;;;5.35;;
6203;SDS011;3135;42.602;23.468;2023-02-08T13:51:42;30.52;;;8.80;;
6203;SDS011;3135;42.602;23.468;2023-02-08T13:54:17;18.92;;;7.32;;
6203;SDS011;3135;42.602;23.468;2023-02-08T13:56:47;26.20;;;9.53;;
6203;SDS011;3135;42.602;23.468;2023-02-08T14:04:53;21.20;;;8.00;;
6203;SDS011;3135;42.602;23.468;2023-02-08T14:07:29;29.60;;;9.05;;
6203;SDS011;3135;42.602;23.468;2023-02-08T14:15:40;18.40;;;6.78;;
6203;SDS011;3135;42.602;23.468;2023-02-08T14:18:25;20.27;;;7.95;;
6203;SDS011;3135;42.602;23.468;2023-02-08T14:21:00;22.10;;;8.27;;
6203;SDS011;3135;42.602;23.468;2023-02-08T14:23:28;17.88;;;6.93;;
6203;SDS011;3135;42.602;23.468;2023-02-08T14:25:57;19.05;;;7.38;;
6203;SDS011;3135;42.602;23.468;2023-02-08T14:28:31;20.30;;;7.68;;
6203;SDS011;3135;42.602;23.468;2023-02-08T14:31:00;17.80;;;7.87;;
6203;SDS011;3135;42.602;23.468;2023-02-08T14:33:32;17.77;;;8.25;;
6203;SDS011;3135;42.602;23.468;2023-02-08T14:36:04;25.08;;;8.70;;
6203;SDS011;3135;42.602;23.468;2023-02-08T14:41:41;23.35;;;8.77;;
6203;SDS011;3135;42.602;23.468;2023-02-08T14:47:03;32.13;;;12.07;;
6203;SDS011;3135;42.602;23.468;2023-02-08T14:49:40;40.40;;;13.90;;
6203;SDS011;3135;42.602;23.468;2023-02-08T14:52:09;35.03;;;12.65;;
6203;SDS011;3135;42.602;23.468;2023-02-08T14:54:47;40.40;;;13.17;;
6203;SDS011;3135;42.602;23.468;2023-02-08T14:57:21;50.47;;;17.00;;
6203;SDS011;3135;42.602;23.468;2023-02-08T14:59:52;41.30;;;13.95;;
6203;SDS011;3135;42.602;23.468;2023-02-08T15:02:20;38.80;;;13.13;;
6203;SDS011;3135;42.602;23.468;2023-02-08T15:04:49;33.60;;;12.33;;
6203;SDS011;3135;42.602;23.468;2023-02-08T15:09:41;33.00;;;12.93;;
6203;SDS011;3135;42.602;23.468;2023-02-08T15:12:28;63.13;;;24.08;;
6203;SDS011;3135;42.602;23.468;2023-02-08T15:14:57;67.43;;;22.67;;
6203;SDS011;3135;42.602;23.468;2023-02-08T15:17:30;85.30;;;27.58;;
6203;SDS011;3135;42.602;23.468;2023-02-08T15:19:56;58.55;;;22.05;;
6203;SDS011;3135;42.602;23.468;2023-02-08T15:24:53;41.83;;;16.17;;
6203;SDS011;3135;42.602;23.468;2023-02-08T15:27:22;33.97;;;14.25;;
6203;SDS011;3135;42.602;23.468;2023-02-08T15:29:49;37.33;;;14.55;;
6203;SDS011;3135;42.602;23.468;2023-02-08T15:32:17;55.92;;;21.83;;
6203;SDS011;3135;42.602;23.468;2023-02-08T15:34:45;91.50;;;33.22;;
6203;SDS011;3135;42.602;23.468;2023-02-08T15:37:17;50.38;;;20.13;;
6203;SDS011;3135;42.602;23.468;2023-02-08T15:39:43;55.50;;;22.30;;
6203;SDS011;3135;42.602;23.468;2023-02-08T15:42:16;54.80;;;18.50;;
6203;SDS011;3135;42.602;23.468;2023-02-08T15:44:49;52.40;;;18.20;;
6203;SDS011;3135;42.602;23.468;2023-02-08T15:47:21;50.03;;;17.77;;
6203;SDS011;3135;42.602;23.468;2023-02-08T15:49:51;39.35;;;14.85;;
6203;SDS011;3135;42.602;23.468;2023-02-08T15:52:20;37.28;;;14.32;;
6203;SDS011;3135;42.602;23.468;2023-02-08T15:54:48;34.25;;;12.98;;
6203;SDS011;3135;42.602;23.468;2023-02-08T15:57:20;35.75;;;14.20;;
6203;SDS011;3135;42.602;23.468;2023-02-08T16:00:13;36.20;;;14.40;;
6203;SDS011;3135;42.602;23.468;2023-02-08T16:02:40;83.03;;;27.02;;
6203;SDS011;3135;42.602;23.468;2023-02-08T16:05:10;115.82;;;32.03;;
6203;SDS011;3135;42.602;23.468;2023-02-08T16:07:57;69.28;;;20.92;;
6203;SDS011;3135;42.602;23.468;2023-02-08T16:13:03;331.70;;;69.25;;
6203;SDS011;3135;42.602;23.468;2023-02-08T16:16:18;84.03;;;24.67;;
6203;SDS011;3135;42.602;23.468;2023-02-08T16:18:45;32.47;;;11.90;;
6203;SDS011;3135;42.602;23.468;2023-02-08T16:23:53;25.67;;;11.13;;
6203;SDS011;3135;42.602;23.468;2023-02-08T16:26:24;52.13;;;17.33;;
6203;SDS011;3135;42.602;23.468;2023-02-08T16:28:56;75.67;;;21.40;;
6203;SDS011;3135;42.602;23.468;2023-02-08T16:31:24;30.65;;;12.60;;
6203;SDS011;3135;42.602;23.468;2023-02-08T16:34:01;21.40;;;9.52;;
6203;SDS011;3135;42.602;23.468;2023-02-08T16:36:35;17.83;;;7.78;;
6203;SDS011;3135;42.602;23.468;2023-02-08T16:44:27;14.90;;;6.30;;
6203;SDS011;3135;42.602;23.468;2023-02-08T16:46:57;18.67;;;7.53;;
6203;SDS011;3135;42.602;23.468;2023-02-08T16:49:24;104.53;;;24.30;;
6203;SDS011;3135;42.602;23.468;2023-02-08T16:51:50;110.73;;;26.03;;
6203;SDS011;3135;42.602;23.468;2023-02-08T16:54:20;34.75;;;11.90;;
6203;SDS011;3135;42.602;23.468;2023-02-08T16:56:49;16.02;;;6.75;;
6203;SDS011;3135;42.602;23.468;2023-02-08T16:59:20;15.73;;;6.22;;
6203;SDS011;3135;42.602;23.468;2023-02-08T17:01:46;16.23;;;7.15;;
6203;SDS011;3135;42.602;23.468;2023-02-08T17:04:14;14.35;;;6.25;;